sensor_id;sensor_type;location;lat;lon;timestamp;P1;durP1;ratioP1;P2;durP2;ratioP2
42168;SDS011;27838;43.858;25.974;2022-08-19T00:01:44;13.52;;;8.90;;
42168;SDS011;27838;43.858;25.974;2022-08-19T00:04:14;16.38;;;7.93;;
42168;SDS011;27838;43.858;25.974;2022-08-19T00:06:42;15.20;;;8.05;;
42168;SDS011;27838;43.858;25.974;2022-08-19T00:09:13;14.85;;;8.40;;
42168;SDS011;27838;43.858;25.974;2022-08-19T00:11:41;16.45;;;8.23;;
42168;SDS011;27838;43.858;25.974;2022-08-19T00:14:09;15.52;;;8.70;;
42168;SDS011;27838;43.858;25.974;2022-08-19T00:16:39;13.23;;;8.63;;
42168;SDS011;27838;43.858;25.974;2022-08-19T00:19:07;13.93;;;8.63;;
42168;SDS011;27838;43.858;25.974;2022-08-19T00:21:34;14.40;;;8.52;;
42168;SDS011;27838;43.858;25.974;2022-08-19T00:24:03;11.90;;;8.15;;
42168;SDS011;27838;43.858;25.974;2022-08-19T00:26:30;10.90;;;8.27;;
42168;SDS011;27838;43.858;25.974;2022-08-19T00:28:56;48.88;;;13.57;;
42168;SDS011;27838;43.858;25.974;2022-08-19T00:31:23;54.42;;;13.02;;
42168;SDS011;27838;43.858;25.974;2022-08-19T00:33:50;32.38;;;10.93;;
42168;SDS011;27838;43.858;25.974;2022-08-19T00:36:17;26.73;;;9.75;;
42168;SDS011;27838;43.858;25.974;2022-08-19T00:38:44;28.80;;;9.55;;
42168;SDS011;27838;43.858;25.974;2022-08-19T00:41:14;28.00;;;8.85;;
42168;SDS011;27838;43.858;25.974;2022-08-19T00:43:43;18.00;;;9.27;;
42168;SDS011;27838;43.858;25.974;2022-08-19T00:46:22;24.98;;;9.82;;
42168;SDS011;27838;43.858;25.974;2022-08-19T00:48:48;20.63;;;9.27;;
42168;SDS011;27838;43.858;25.974;2022-08-19T00:51:15;19.83;;;9.50;;
42168;SDS011;27838;43.858;25.974;2022-08-19T00:53:41;23.33;;;9.93;;
42168;SDS011;27838;43.858;25.974;2022-08-19T00:56:08;19.40;;;9.25;;
42168;SDS011;27838;43.858;25.974;2022-08-19T00:58:35;17.92;;;8.85;;
42168;SDS011;27838;43.858;25.974;2022-08-19T01:01:03;19.70;;;9.02;;
42168;SDS011;27838;43.858;25.974;2022-08-19T01:03:32;19.23;;;9.50;;
42168;SDS011;27838;43.858;25.974;2022-08-19T01:05:59;17.95;;;8.60;;
42168;SDS011;27838;43.858;25.974;2022-08-19T01:08:26;14.43;;;9.00;;
42168;SDS011;27838;43.858;25.974;2022-08-19T01:10:54;13.35;;;9.35;;
42168;SDS011;27838;43.858;25.974;2022-08-19T01:13:23;14.57;;;9.50;;
42168;SDS011;27838;43.858;25.974;2022-08-19T01:15:56;16.60;;;9.60;;
42168;SDS011;27838;43.858;25.974;2022-08-19T01:18:26;13.00;;;8.48;;
42168;SDS011;27838;43.858;25.974;2022-08-19T01:20:54;13.60;;;9.40;;
42168;SDS011;27838;43.858;25.974;2022-08-19T01:23:22;15.68;;;10.23;;
42168;SDS011;27838;43.858;25.974;2022-08-19T01:26:07;17.13;;;10.07;;
42168;SDS011;27838;43.858;25.974;2022-08-19T01:28:40;17.58;;;9.68;;
42168;SDS011;27838;43.858;25.974;2022-08-19T01:31:09;14.52;;;9.40;;
42168;SDS011;27838;43.858;25.974;2022-08-19T01:33:38;21.77;;;10.10;;
42168;SDS011;27838;43.858;25.974;2022-08-19T01:36:10;16.60;;;9.70;;
42168;SDS011;27838;43.858;25.974;2022-08-19T01:38:39;22.45;;;9.93;;
42168;SDS011;27838;43.858;25.974;2022-08-19T01:41:08;16.90;;;9.35;;
42168;SDS011;27838;43.858;25.974;2022-08-19T01:43:36;25.90;;;9.63;;
42168;SDS011;27838;43.858;25.974;2022-08-19T01:46:03;20.33;;;9.98;;
42168;SDS011;27838;43.858;25.974;2022-08-19T01:48:34;20.52;;;10.82;;
42168;SDS011;27838;43.858;25.974;2022-08-19T01:51:02;20.98;;;10.68;;
42168;SDS011;27838;43.858;25.974;2022-08-19T01:53:29;25.90;;;10.05;;
42168;SDS011;27838;43.858;25.974;2022-08-19T01:55:56;19.13;;;10.73;;
42168;SDS011;27838;43.858;25.974;2022-08-19T01:58:26;14.68;;;9.80;;
42168;SDS011;27838;43.858;25.974;2022-08-19T02:00:58;29.33;;;11.70;;
42168;SDS011;27838;43.858;25.974;2022-08-19T02:03:25;18.83;;;11.15;;
42168;SDS011;27838;43.858;25.974;2022-08-19T02:05:58;20.63;;;10.35;;
42168;SDS011;27838;43.858;25.974;2022-08-19T02:08:27;11.57;;;9.35;;
42168;SDS011;27838;43.858;25.974;2022-08-19T02:10:55;14.43;;;8.52;;
42168;SDS011;27838;43.858;25.974;2022-08-19T02:13:24;12.27;;;9.40;;
42168;SDS011;27838;43.858;25.974;2022-08-19T02:15:52;18.92;;;10.13;;
42168;SDS011;27838;43.858;25.974;2022-08-19T02:18:19;16.30;;;10.02;;
42168;SDS011;27838;43.858;25.974;2022-08-19T02:20:46;20.23;;;9.98;;
42168;SDS011;27838;43.858;25.974;2022-08-19T02:23:13;15.55;;;10.40;;
42168;SDS011;27838;43.858;25.974;2022-08-19T02:25:42;26.55;;;11.23;;
42168;SDS011;27838;43.858;25.974;2022-08-19T02:28:10;28.08;;;11.85;;
42168;SDS011;27838;43.858;25.974;2022-08-19T02:30:37;37.45;;;11.70;;
42168;SDS011;27838;43.858;25.974;2022-08-19T02:33:04;36.10;;;11.38;;
42168;SDS011;27838;43.858;25.974;2022-08-19T02:35:31;27.38;;;12.20;;
42168;SDS011;27838;43.858;25.974;2022-08-19T02:37:58;28.08;;;11.25;;
42168;SDS011;27838;43.858;25.974;2022-08-19T02:40:47;20.42;;;10.48;;
42168;SDS011;27838;43.858;25.974;2022-08-19T02:43:18;20.58;;;10.05;;
42168;SDS011;27838;43.858;25.974;2022-08-19T02:45:46;23.15;;;10.10;;
42168;SDS011;27838;43.858;25.974;2022-08-19T02:48:18;32.05;;;11.63;;
42168;SDS011;27838;43.858;25.974;2022-08-19T02:50:47;42.72;;;11.55;;
42168;SDS011;27838;43.858;25.974;2022-08-19T02:53:17;33.10;;;11.93;;
42168;SDS011;27838;43.858;25.974;2022-08-19T02:55:47;35.55;;;11.75;;
42168;SDS011;27838;43.858;25.974;2022-08-19T02:58:15;31.38;;;11.85;;
42168;SDS011;27838;43.858;25.974;2022-08-19T03:00:49;21.20;;;10.65;;
42168;SDS011;27838;43.858;25.974;2022-08-19T03:03:18;26.90;;;11.52;;
42168;SDS011;27838;43.858;25.974;2022-08-19T03:05:45;20.83;;;9.98;;
42168;SDS011;27838;43.858;25.974;2022-08-19T03:08:12;27.02;;;10.93;;
42168;SDS011;27838;43.858;25.974;2022-08-19T03:10:40;21.63;;;11.40;;
42168;SDS011;27838;43.858;25.974;2022-08-19T03:13:11;19.92;;;11.07;;
42168;SDS011;27838;43.858;25.974;2022-08-19T03:15:44;24.17;;;11.45;;
42168;SDS011;27838;43.858;25.974;2022-08-19T03:18:12;27.23;;;11.75;;
42168;SDS011;27838;43.858;25.974;2022-08-19T03:20:41;24.50;;;11.88;;
42168;SDS011;27838;43.858;25.974;2022-08-19T03:23:09;25.00;;;10.80;;
42168;SDS011;27838;43.858;25.974;2022-08-19T03:25:41;31.15;;;11.82;;
42168;SDS011;27838;43.858;25.974;2022-08-19T03:28:10;26.45;;;11.85;;
42168;SDS011;27838;43.858;25.974;2022-08-19T03:30:39;28.65;;;11.43;;
42168;SDS011;27838;43.858;25.974;2022-08-19T03:33:07;25.13;;;11.98;;
42168;SDS011;27838;43.858;25.974;2022-08-19T03:35:35;22.83;;;11.50;;
42168;SDS011;27838;43.858;25.974;2022-08-19T03:38:05;24.83;;;11.00;;
42168;SDS011;27838;43.858;25.974;2022-08-19T03:40:32;20.27;;;11.47;;
42168;SDS011;27838;43.858;25.974;2022-08-19T03:43:02;20.13;;;10.70;;
42168;SDS011;27838;43.858;25.974;2022-08-19T03:45:30;23.63;;;11.52;;
42168;SDS011;27838;43.858;25.974;2022-08-19T03:47:57;21.17;;;11.10;;
42168;SDS011;27838;43.858;25.974;2022-08-19T03:50:23;15.98;;;10.70;;
42168;SDS011;27838;43.858;25.974;2022-08-19T03:52:50;19.85;;;10.55;;
42168;SDS011;27838;43.858;25.974;2022-08-19T03:55:18;15.15;;;10.57;;
42168;SDS011;27838;43.858;25.974;2022-08-19T03:57:45;23.35;;;10.98;;
42168;SDS011;27838;43.858;25.974;2022-08-19T04:00:13;17.10;;;10.45;;
42168;SDS011;27838;43.858;25.974;2022-08-19T04:02:41;19.90;;;10.98;;
42168;SDS011;27838;43.858;25.974;2022-08-19T04:05:08;16.48;;;10.73;;
42168;SDS011;27838;43.858;25.974;2022-08-19T04:07:35;13.23;;;10.68;;
42168;SDS011;27838;43.858;25.974;2022-08-19T04:10:02;21.75;;;10.60;;
42168;SDS011;27838;43.858;25.974;2022-08-19T04:12:29;21.40;;;10.57;;
42168;SDS011;27838;43.858;25.974;2022-08-19T04:14:56;26.50;;;11.70;;
42168;SDS011;27838;43.858;25.974;2022-08-19T04:17:23;25.00;;;11.85;;
42168;SDS011;27838;43.858;25.974;2022-08-19T04:19:50;28.27;;;11.23;;
42168;SDS011;27838;43.858;25.974;2022-08-19T04:22:17;28.85;;;11.90;;
42168;SDS011;27838;43.858;25.974;2022-08-19T04:24:43;29.33;;;12.60;;
42168;SDS011;27838;43.858;25.974;2022-08-19T04:27:10;23.13;;;10.15;;
42168;SDS011;27838;43.858;25.974;2022-08-19T04:29:37;28.02;;;12.10;;
42168;SDS011;27838;43.858;25.974;2022-08-19T04:32:04;23.42;;;11.25;;
42168;SDS011;27838;43.858;25.974;2022-08-19T04:34:31;21.20;;;11.95;;
42168;SDS011;27838;43.858;25.974;2022-08-19T04:36:58;18.90;;;11.77;;
42168;SDS011;27838;43.858;25.974;2022-08-19T04:39:26;25.33;;;13.07;;
42168;SDS011;27838;43.858;25.974;2022-08-19T04:42:09;21.45;;;10.93;;
42168;SDS011;27838;43.858;25.974;2022-08-19T04:44:56;22.52;;;12.27;;
42168;SDS011;27838;43.858;25.974;2022-08-19T04:47:23;18.45;;;12.73;;
42168;SDS011;27838;43.858;25.974;2022-08-19T04:49:50;16.65;;;13.18;;
42168;SDS011;27838;43.858;25.974;2022-08-19T04:52:17;22.38;;;12.43;;
42168;SDS011;27838;43.858;25.974;2022-08-19T04:54:43;16.20;;;12.77;;
42168;SDS011;27838;43.858;25.974;2022-08-19T04:57:10;19.48;;;12.35;;
42168;SDS011;27838;43.858;25.974;2022-08-19T04:59:37;20.30;;;12.10;;
42168;SDS011;27838;43.858;25.974;2022-08-19T05:02:06;19.08;;;11.55;;
42168;SDS011;27838;43.858;25.974;2022-08-19T05:04:34;17.73;;;12.55;;
42168;SDS011;27838;43.858;25.974;2022-08-19T05:07:03;18.70;;;13.65;;
42168;SDS011;27838;43.858;25.974;2022-08-19T05:09:30;21.55;;;12.52;;
42168;SDS011;27838;43.858;25.974;2022-08-19T05:11:57;39.90;;;14.90;;
42168;SDS011;27838;43.858;25.974;2022-08-19T05:14:24;27.05;;;13.95;;
42168;SDS011;27838;43.858;25.974;2022-08-19T05:16:51;26.27;;;13.38;;
42168;SDS011;27838;43.858;25.974;2022-08-19T05:19:17;20.80;;;11.93;;
42168;SDS011;27838;43.858;25.974;2022-08-19T05:22:01;25.02;;;14.40;;
42168;SDS011;27838;43.858;25.974;2022-08-19T05:24:45;22.27;;;14.10;;
42168;SDS011;27838;43.858;25.974;2022-08-19T05:27:11;33.35;;;15.27;;
42168;SDS011;27838;43.858;25.974;2022-08-19T05:29:38;32.92;;;13.85;;
42168;SDS011;27838;43.858;25.974;2022-08-19T05:32:16;19.00;;;13.40;;
42168;SDS011;27838;43.858;25.974;2022-08-19T05:34:42;24.88;;;14.82;;
42168;SDS011;27838;43.858;25.974;2022-08-19T05:37:11;32.35;;;18.30;;
42168;SDS011;27838;43.858;25.974;2022-08-19T05:39:41;31.33;;;17.88;;
42168;SDS011;27838;43.858;25.974;2022-08-19T05:42:09;32.42;;;17.90;;
42168;SDS011;27838;43.858;25.974;2022-08-19T05:44:40;34.22;;;17.08;;
42168;SDS011;27838;43.858;25.974;2022-08-19T05:47:11;34.92;;;17.63;;
42168;SDS011;27838;43.858;25.974;2022-08-19T05:49:40;38.85;;;18.88;;
42168;SDS011;27838;43.858;25.974;2022-08-19T05:52:10;47.00;;;18.35;;
42168;SDS011;27838;43.858;25.974;2022-08-19T05:54:40;52.85;;;18.95;;
42168;SDS011;27838;43.858;25.974;2022-08-19T05:57:08;39.40;;;19.40;;
42168;SDS011;27838;43.858;25.974;2022-08-19T05:59:36;43.33;;;21.15;;
42168;SDS011;27838;43.858;25.974;2022-08-19T06:02:03;44.63;;;24.17;;
42168;SDS011;27838;43.858;25.974;2022-08-19T06:04:32;34.15;;;21.17;;
42168;SDS011;27838;43.858;25.974;2022-08-19T06:06:59;41.75;;;20.35;;
42168;SDS011;27838;43.858;25.974;2022-08-19T06:09:29;37.15;;;19.90;;
42168;SDS011;27838;43.858;25.974;2022-08-19T06:11:57;37.88;;;16.92;;
42168;SDS011;27838;43.858;25.974;2022-08-19T06:14:31;33.83;;;15.57;;
42168;SDS011;27838;43.858;25.974;2022-08-19T06:17:00;35.45;;;15.07;;
42168;SDS011;27838;43.858;25.974;2022-08-19T06:19:28;26.33;;;13.45;;
42168;SDS011;27838;43.858;25.974;2022-08-19T06:21:57;21.77;;;13.30;;
42168;SDS011;27838;43.858;25.974;2022-08-19T06:24:25;23.40;;;13.02;;
42168;SDS011;27838;43.858;25.974;2022-08-19T06:26:54;26.15;;;12.05;;
42168;SDS011;27838;43.858;25.974;2022-08-19T06:29:23;25.55;;;11.68;;
42168;SDS011;27838;43.858;25.974;2022-08-19T06:31:53;31.80;;;12.25;;
42168;SDS011;27838;43.858;25.974;2022-08-19T06:34:21;29.63;;;12.70;;
42168;SDS011;27838;43.858;25.974;2022-08-19T06:36:48;25.38;;;10.77;;
42168;SDS011;27838;43.858;25.974;2022-08-19T06:39:18;14.98;;;11.13;;
42168;SDS011;27838;43.858;25.974;2022-08-19T06:41:51;17.40;;;11.93;;
42168;SDS011;27838;43.858;25.974;2022-08-19T06:44:39;27.08;;;12.10;;
42168;SDS011;27838;43.858;25.974;2022-08-19T06:47:12;39.92;;;12.63;;
42168;SDS011;27838;43.858;25.974;2022-08-19T06:49:42;33.90;;;12.48;;
42168;SDS011;27838;43.858;25.974;2022-08-19T06:52:12;28.70;;;12.25;;
42168;SDS011;27838;43.858;25.974;2022-08-19T06:54:44;28.75;;;12.13;;
42168;SDS011;27838;43.858;25.974;2022-08-19T06:57:11;20.92;;;10.82;;
42168;SDS011;27838;43.858;25.974;2022-08-19T06:59:41;42.08;;;23.75;;
42168;SDS011;27838;43.858;25.974;2022-08-19T07:02:10;16.98;;;10.82;;
42168;SDS011;27838;43.858;25.974;2022-08-19T07:04:43;21.33;;;10.90;;
42168;SDS011;27838;43.858;25.974;2022-08-19T07:07:11;20.75;;;11.13;;
42168;SDS011;27838;43.858;25.974;2022-08-19T07:09:42;30.33;;;18.83;;
42168;SDS011;27838;43.858;25.974;2022-08-19T07:12:12;17.20;;;10.00;;
42168;SDS011;27838;43.858;25.974;2022-08-19T07:14:41;17.50;;;10.00;;
42168;SDS011;27838;43.858;25.974;2022-08-19T07:17:11;52.17;;;11.80;;
42168;SDS011;27838;43.858;25.974;2022-08-19T07:19:38;33.05;;;10.85;;
42168;SDS011;27838;43.858;25.974;2022-08-19T07:22:06;27.65;;;11.38;;
42168;SDS011;27838;43.858;25.974;2022-08-19T07:24:35;17.60;;;8.63;;
42168;SDS011;27838;43.858;25.974;2022-08-19T07:27:08;23.33;;;10.20;;
42168;SDS011;27838;43.858;25.974;2022-08-19T07:29:35;20.27;;;9.13;;
42168;SDS011;27838;43.858;25.974;2022-08-19T07:32:03;13.18;;;8.10;;
42168;SDS011;27838;43.858;25.974;2022-08-19T07:34:31;14.98;;;8.05;;
42168;SDS011;27838;43.858;25.974;2022-08-19T07:37:03;19.95;;;7.47;;
42168;SDS011;27838;43.858;25.974;2022-08-19T07:39:35;10.52;;;7.88;;
42168;SDS011;27838;43.858;25.974;2022-08-19T07:42:05;14.30;;;8.35;;
42168;SDS011;27838;43.858;25.974;2022-08-19T07:44:34;17.52;;;8.00;;
42168;SDS011;27838;43.858;25.974;2022-08-19T07:47:02;15.60;;;8.18;;
42168;SDS011;27838;43.858;25.974;2022-08-19T07:49:30;13.85;;;8.10;;
42168;SDS011;27838;43.858;25.974;2022-08-19T07:51:58;8.75;;;7.75;;
42168;SDS011;27838;43.858;25.974;2022-08-19T07:54:34;17.02;;;7.90;;
42168;SDS011;27838;43.858;25.974;2022-08-19T07:57:05;21.38;;;9.15;;
42168;SDS011;27838;43.858;25.974;2022-08-19T07:59:32;10.75;;;8.15;;
42168;SDS011;27838;43.858;25.974;2022-08-19T08:02:02;12.45;;;8.02;;
42168;SDS011;27838;43.858;25.974;2022-08-19T08:04:30;15.70;;;7.75;;
42168;SDS011;27838;43.858;25.974;2022-08-19T08:07:14;37.65;;;9.10;;
42168;SDS011;27838;43.858;25.974;2022-08-19T08:09:59;24.27;;;8.57;;
42168;SDS011;27838;43.858;25.974;2022-08-19T08:12:27;19.65;;;9.45;;
42168;SDS011;27838;43.858;25.974;2022-08-19T08:14:59;19.98;;;8.50;;
42168;SDS011;27838;43.858;25.974;2022-08-19T08:17:27;16.88;;;7.57;;
42168;SDS011;27838;43.858;25.974;2022-08-19T08:19:58;14.32;;;7.35;;
42168;SDS011;27838;43.858;25.974;2022-08-19T08:22:27;20.27;;;7.97;;
42168;SDS011;27838;43.858;25.974;2022-08-19T08:25:35;13.57;;;7.65;;
42168;SDS011;27838;43.858;25.974;2022-08-19T08:28:04;14.90;;;7.43;;
42168;SDS011;27838;43.858;25.974;2022-08-19T08:30:48;21.10;;;7.60;;
42168;SDS011;27838;43.858;25.974;2022-08-19T08:33:23;28.23;;;8.93;;
42168;SDS011;27838;43.858;25.974;2022-08-19T08:35:51;26.10;;;9.25;;
42168;SDS011;27838;43.858;25.974;2022-08-19T08:38:18;18.42;;;8.38;;
42168;SDS011;27838;43.858;25.974;2022-08-19T08:40:47;13.95;;;7.78;;
42168;SDS011;27838;43.858;25.974;2022-08-19T08:43:22;25.48;;;8.70;;
42168;SDS011;27838;43.858;25.974;2022-08-19T08:45:55;21.20;;;8.10;;
42168;SDS011;27838;43.858;25.974;2022-08-19T08:48:32;15.25;;;8.20;;
42168;SDS011;27838;43.858;25.974;2022-08-19T08:51:15;17.05;;;7.88;;
42168;SDS011;27838;43.858;25.974;2022-08-19T08:53:59;14.15;;;8.18;;
42168;SDS011;27838;43.858;25.974;2022-08-19T08:56:31;17.40;;;9.30;;
42168;SDS011;27838;43.858;25.974;2022-08-19T08:59:00;10.55;;;7.28;;
42168;SDS011;27838;43.858;25.974;2022-08-19T09:01:31;13.10;;;9.90;;
42168;SDS011;27838;43.858;25.974;2022-08-19T09:03:58;17.15;;;9.20;;
42168;SDS011;27838;43.858;25.974;2022-08-19T09:08:59;15.05;;;7.60;;
42168;SDS011;27838;43.858;25.974;2022-08-19T09:11:44;13.23;;;7.63;;
42168;SDS011;27838;43.858;25.974;2022-08-19T09:14:26;15.80;;;7.90;;
42168;SDS011;27838;43.858;25.974;2022-08-19T09:16:57;11.15;;;7.20;;
42168;SDS011;27838;43.858;25.974;2022-08-19T09:19:25;15.32;;;8.13;;
42168;SDS011;27838;43.858;25.974;2022-08-19T09:21:52;18.08;;;8.00;;
42168;SDS011;27838;43.858;25.974;2022-08-19T09:24:20;21.90;;;7.80;;
42168;SDS011;27838;43.858;25.974;2022-08-19T09:26:52;22.83;;;11.40;;
42168;SDS011;27838;43.858;25.974;2022-08-19T09:29:20;17.30;;;7.53;;
42168;SDS011;27838;43.858;25.974;2022-08-19T09:31:47;12.60;;;7.03;;
42168;SDS011;27838;43.858;25.974;2022-08-19T09:34:14;10.70;;;6.70;;
42168;SDS011;27838;43.858;25.974;2022-08-19T09:36:41;13.82;;;7.18;;
42168;SDS011;27838;43.858;25.974;2022-08-19T09:39:07;13.80;;;7.40;;
42168;SDS011;27838;43.858;25.974;2022-08-19T09:41:34;15.48;;;7.43;;
42168;SDS011;27838;43.858;25.974;2022-08-19T09:44:04;10.40;;;6.82;;
42168;SDS011;27838;43.858;25.974;2022-08-19T09:46:31;22.08;;;7.78;;
42168;SDS011;27838;43.858;25.974;2022-08-19T09:49:06;18.85;;;7.80;;
42168;SDS011;27838;43.858;25.974;2022-08-19T09:51:33;13.13;;;7.65;;
42168;SDS011;27838;43.858;25.974;2022-08-19T09:54:00;12.75;;;7.68;;
42168;SDS011;27838;43.858;25.974;2022-08-19T09:56:29;19.90;;;8.00;;
42168;SDS011;27838;43.858;25.974;2022-08-19T09:58:59;14.68;;;7.60;;
42168;SDS011;27838;43.858;25.974;2022-08-19T10:01:29;16.77;;;8.70;;
42168;SDS011;27838;43.858;25.974;2022-08-19T10:03:58;11.02;;;7.13;;
42168;SDS011;27838;43.858;25.974;2022-08-19T10:06:26;14.18;;;8.05;;
42168;SDS011;27838;43.858;25.974;2022-08-19T10:09:03;13.23;;;7.65;;
42168;SDS011;27838;43.858;25.974;2022-08-19T10:11:40;14.23;;;7.53;;
42168;SDS011;27838;43.858;25.974;2022-08-19T10:14:08;13.85;;;8.00;;
42168;SDS011;27838;43.858;25.974;2022-08-19T10:16:35;11.52;;;7.03;;
42168;SDS011;27838;43.858;25.974;2022-08-19T10:19:04;16.17;;;7.25;;
42168;SDS011;27838;43.858;25.974;2022-08-19T10:21:31;15.60;;;6.97;;
42168;SDS011;27838;43.858;25.974;2022-08-19T10:24:00;15.73;;;7.88;;
42168;SDS011;27838;43.858;25.974;2022-08-19T10:26:30;25.43;;;7.63;;
42168;SDS011;27838;43.858;25.974;2022-08-19T10:28:59;15.05;;;7.65;;
42168;SDS011;27838;43.858;25.974;2022-08-19T10:31:27;11.93;;;7.28;;
42168;SDS011;27838;43.858;25.974;2022-08-19T10:33:56;14.35;;;6.88;;
42168;SDS011;27838;43.858;25.974;2022-08-19T10:36:24;11.50;;;7.50;;
42168;SDS011;27838;43.858;25.974;2022-08-19T10:38:57;19.10;;;7.82;;
42168;SDS011;27838;43.858;25.974;2022-08-19T10:41:30;8.98;;;7.78;;
42168;SDS011;27838;43.858;25.974;2022-08-19T10:44:06;12.88;;;7.07;;
42168;SDS011;27838;43.858;25.974;2022-08-19T10:46:39;11.00;;;7.70;;
42168;SDS011;27838;43.858;25.974;2022-08-19T10:49:08;14.57;;;6.95;;
42168;SDS011;27838;43.858;25.974;2022-08-19T10:51:38;13.05;;;8.40;;
42168;SDS011;27838;43.858;25.974;2022-08-19T10:54:24;12.13;;;7.45;;
42168;SDS011;27838;43.858;25.974;2022-08-19T10:57:14;10.10;;;7.88;;
42168;SDS011;27838;43.858;25.974;2022-08-19T10:59:49;15.60;;;7.28;;
42168;SDS011;27838;43.858;25.974;2022-08-19T11:02:35;11.75;;;7.47;;
42168;SDS011;27838;43.858;25.974;2022-08-19T11:07:36;14.70;;;7.55;;
42168;SDS011;27838;43.858;25.974;2022-08-19T11:10:04;18.77;;;7.60;;
42168;SDS011;27838;43.858;25.974;2022-08-19T11:12:38;12.23;;;7.07;;
42168;SDS011;27838;43.858;25.974;2022-08-19T11:15:06;16.05;;;7.60;;
42168;SDS011;27838;43.858;25.974;2022-08-19T11:17:38;17.73;;;7.45;;
42168;SDS011;27838;43.858;25.974;2022-08-19T11:20:19;18.58;;;8.13;;
42168;SDS011;27838;43.858;25.974;2022-08-19T11:22:50;14.13;;;8.00;;
42168;SDS011;27838;43.858;25.974;2022-08-19T11:25:22;18.50;;;7.80;;
42168;SDS011;27838;43.858;25.974;2022-08-19T11:27:59;11.23;;;6.72;;
42168;SDS011;27838;43.858;25.974;2022-08-19T11:30:26;24.08;;;7.82;;
42168;SDS011;27838;43.858;25.974;2022-08-19T11:32:53;14.55;;;7.93;;
42168;SDS011;27838;43.858;25.974;2022-08-19T11:35:20;13.35;;;7.50;;
42168;SDS011;27838;43.858;25.974;2022-08-19T11:37:48;23.60;;;7.80;;
42168;SDS011;27838;43.858;25.974;2022-08-19T11:40:19;11.52;;;7.32;;
42168;SDS011;27838;43.858;25.974;2022-08-19T11:42:52;21.40;;;7.32;;
42168;SDS011;27838;43.858;25.974;2022-08-19T11:45:24;16.13;;;7.45;;
42168;SDS011;27838;43.858;25.974;2022-08-19T11:47:53;14.90;;;7.30;;
42168;SDS011;27838;43.858;25.974;2022-08-19T11:50:23;14.10;;;7.70;;
42168;SDS011;27838;43.858;25.974;2022-08-19T11:52:52;26.67;;;7.72;;
42168;SDS011;27838;43.858;25.974;2022-08-19T11:55:20;16.73;;;7.47;;
42168;SDS011;27838;43.858;25.974;2022-08-19T11:57:48;9.10;;;6.88;;
42168;SDS011;27838;43.858;25.974;2022-08-19T12:00:15;23.38;;;7.13;;
42168;SDS011;27838;43.858;25.974;2022-08-19T12:02:51;11.20;;;7.25;;
42168;SDS011;27838;43.858;25.974;2022-08-19T12:05:22;17.17;;;12.80;;
42168;SDS011;27838;43.858;25.974;2022-08-19T12:07:49;13.73;;;9.07;;
42168;SDS011;27838;43.858;25.974;2022-08-19T12:10:16;17.70;;;7.15;;
42168;SDS011;27838;43.858;25.974;2022-08-19T12:12:43;19.35;;;7.85;;
42168;SDS011;27838;43.858;25.974;2022-08-19T12:15:10;14.77;;;7.60;;
42168;SDS011;27838;43.858;25.974;2022-08-19T12:17:39;14.95;;;7.07;;
42168;SDS011;27838;43.858;25.974;2022-08-19T12:20:07;18.58;;;7.35;;
42168;SDS011;27838;43.858;25.974;2022-08-19T12:22:37;18.90;;;6.78;;
42168;SDS011;27838;43.858;25.974;2022-08-19T12:25:04;16.90;;;7.20;;
42168;SDS011;27838;43.858;25.974;2022-08-19T12:27:32;19.98;;;7.18;;
42168;SDS011;27838;43.858;25.974;2022-08-19T12:29:58;17.27;;;9.15;;
42168;SDS011;27838;43.858;25.974;2022-08-19T12:32:29;9.80;;;6.40;;
42168;SDS011;27838;43.858;25.974;2022-08-19T12:34:59;22.02;;;7.30;;
42168;SDS011;27838;43.858;25.974;2022-08-19T12:37:29;22.42;;;8.57;;
42168;SDS011;27838;43.858;25.974;2022-08-19T12:39:57;15.50;;;6.50;;
42168;SDS011;27838;43.858;25.974;2022-08-19T12:42:25;18.55;;;13.73;;
42168;SDS011;27838;43.858;25.974;2022-08-19T12:44:51;9.25;;;6.47;;
42168;SDS011;27838;43.858;25.974;2022-08-19T12:47:18;22.58;;;9.65;;
42168;SDS011;27838;43.858;25.974;2022-08-19T12:49:45;18.85;;;8.05;;
42168;SDS011;27838;43.858;25.974;2022-08-19T12:52:15;10.20;;;6.78;;
42168;SDS011;27838;43.858;25.974;2022-08-19T12:54:46;20.48;;;6.90;;
42168;SDS011;27838;43.858;25.974;2022-08-19T12:57:13;16.42;;;10.40;;
42168;SDS011;27838;43.858;25.974;2022-08-19T12:59:40;24.85;;;7.53;;
42168;SDS011;27838;43.858;25.974;2022-08-19T13:02:07;18.73;;;7.00;;
42168;SDS011;27838;43.858;25.974;2022-08-19T13:04:45;16.70;;;7.05;;
42168;SDS011;27838;43.858;25.974;2022-08-19T13:07:18;10.38;;;6.80;;
42168;SDS011;27838;43.858;25.974;2022-08-19T13:09:44;11.73;;;7.00;;
42168;SDS011;27838;43.858;25.974;2022-08-19T13:12:14;13.60;;;8.77;;
42168;SDS011;27838;43.858;25.974;2022-08-19T13:14:40;15.23;;;6.95;;
42168;SDS011;27838;43.858;25.974;2022-08-19T13:17:07;26.83;;;7.70;;
42168;SDS011;27838;43.858;25.974;2022-08-19T13:19:36;13.55;;;6.68;;
42168;SDS011;27838;43.858;25.974;2022-08-19T13:22:05;12.18;;;7.38;;
42168;SDS011;27838;43.858;25.974;2022-08-19T13:24:32;9.80;;;6.75;;
42168;SDS011;27838;43.858;25.974;2022-08-19T13:26:59;16.48;;;8.30;;
42168;SDS011;27838;43.858;25.974;2022-08-19T13:29:31;21.55;;;7.63;;
42168;SDS011;27838;43.858;25.974;2022-08-19T13:32:16;15.15;;;7.65;;
42168;SDS011;27838;43.858;25.974;2022-08-19T13:35:01;11.35;;;7.95;;
42168;SDS011;27838;43.858;25.974;2022-08-19T13:37:28;10.20;;;6.90;;
42168;SDS011;27838;43.858;25.974;2022-08-19T13:40:08;22.98;;;6.55;;
42168;SDS011;27838;43.858;25.974;2022-08-19T13:42:48;13.07;;;6.50;;
42168;SDS011;27838;43.858;25.974;2022-08-19T13:45:17;21.92;;;6.38;;
42168;SDS011;27838;43.858;25.974;2022-08-19T13:47:48;15.40;;;6.82;;
42168;SDS011;27838;43.858;25.974;2022-08-19T13:50:19;8.88;;;5.22;;
42168;SDS011;27838;43.858;25.974;2022-08-19T13:52:50;8.98;;;5.72;;
42168;SDS011;27838;43.858;25.974;2022-08-19T13:55:23;12.77;;;6.05;;
42168;SDS011;27838;43.858;25.974;2022-08-19T13:57:55;14.80;;;5.88;;
42168;SDS011;27838;43.858;25.974;2022-08-19T14:00:24;10.10;;;5.43;;
42168;SDS011;27838;43.858;25.974;2022-08-19T14:02:54;14.10;;;7.60;;
42168;SDS011;27838;43.858;25.974;2022-08-19T14:05:22;13.80;;;5.78;;
42168;SDS011;27838;43.858;25.974;2022-08-19T14:07:53;13.30;;;6.00;;
42168;SDS011;27838;43.858;25.974;2022-08-19T14:10:23;15.98;;;6.95;;
42168;SDS011;27838;43.858;25.974;2022-08-19T14:12:54;31.58;;;20.65;;
42168;SDS011;27838;43.858;25.974;2022-08-19T14:15:23;18.50;;;8.88;;
42168;SDS011;27838;43.858;25.974;2022-08-19T14:17:51;12.45;;;7.15;;
42168;SDS011;27838;43.858;25.974;2022-08-19T14:20:18;10.65;;;6.45;;
42168;SDS011;27838;43.858;25.974;2022-08-19T14:22:46;14.52;;;8.50;;
42168;SDS011;27838;43.858;25.974;2022-08-19T14:25:18;14.57;;;6.47;;
42168;SDS011;27838;43.858;25.974;2022-08-19T14:27:48;9.90;;;5.85;;
42168;SDS011;27838;43.858;25.974;2022-08-19T14:30:27;16.70;;;7.00;;
42168;SDS011;27838;43.858;25.974;2022-08-19T14:32:56;20.45;;;6.88;;
42168;SDS011;27838;43.858;25.974;2022-08-19T14:35:25;12.57;;;6.20;;
42168;SDS011;27838;43.858;25.974;2022-08-19T14:38:03;11.90;;;6.85;;